sensor_id;sensor_type;location;lat;lon;timestamp;temperature;humidity
14985;DHT22;7588;62.368;25.902;2023-04-25T00:01:17;2.30;99.90
14985;DHT22;7588;62.368;25.902;2023-04-25T00:03:44;2.30;99.90
14985;DHT22;7588;62.368;25.902;2023-04-25T00:06:11;2.30;99.90
14985;DHT22;7588;62.368;25.902;2023-04-25T00:08:37;2.30;99.90
14985;DHT22;7588;62.368;25.902;2023-04-25T00:11:03;2.30;99.90
14985;DHT22;7588;62.368;25.902;2023-04-25T00:13:28;2.30;99.90
14985;DHT22;7588;62.368;25.902;2023-04-25T00:15:55;2.30;99.90
14985;DHT22;7588;62.368;25.902;2023-04-25T00:18:21;2.30;99.90
14985;DHT22;7588;62.368;25.902;2023-04-25T00:20:47;2.30;99.90
14985;DHT22;7588;62.368;25.902;2023-04-25T00:23:15;2.30;99.90
14985;DHT22;7588;62.368;25.902;2023-04-25T00:25:47;2.30;99.90
14985;DHT22;7588;62.368;25.902;2023-04-25T00:28:13;2.20;99.90
14985;DHT22;7588;62.368;25.902;2023-04-25T00:30:39;2.20;99.90
14985;DHT22;7588;62.368;25.902;2023-04-25T00:33:06;2.20;99.90
14985;DHT22;7588;62.368;25.902;2023-04-25T00:35:31;2.20;99.90
14985;DHT22;7588;62.368;25.902;2023-04-25T00:37:57;2.20;99.90
14985;DHT22;7588;62.368;25.902;2023-04-25T00:40:23;2.20;99.90
14985;DHT22;7588;62.368;25.902;2023-04-25T00:42:50;2.20;99.90
14985;DHT22;7588;62.368;25.902;2023-04-25T00:45:17;2.20;99.90
14985;DHT22;7588;62.368;25.902;2023-04-25T00:47:43;2.20;99.90
14985;DHT22;7588;62.368;25.902;2023-04-25T00:50:09;2.20;99.90
14985;DHT22;7588;62.368;25.902;2023-04-25T00:52:37;2.20;99.90
14985;DHT22;7588;62.368;25.902;2023-04-25T00:55:04;2.20;99.90
14985;DHT22;7588;62.368;25.902;2023-04-25T00:57:29;2.20;99.90
14985;DHT22;7588;62.368;25.902;2023-04-25T00:59:55;2.20;99.90
14985;DHT22;7588;62.368;25.902;2023-04-25T01:02:21;2.20;99.90
14985;DHT22;7588;62.368;25.902;2023-04-25T01:04:48;2.20;99.90
14985;DHT22;7588;62.368;25.902;2023-04-25T01:07:14;2.20;99.90
14985;DHT22;7588;62.368;25.902;2023-04-25T01:09:41;2.20;99.90
14985;DHT22;7588;62.368;25.902;2023-04-25T01:12:07;2.20;99.90
14985;DHT22;7588;62.368;25.902;2023-04-25T01:14:33;2.20;99.90
14985;DHT22;7588;62.368;25.902;2023-04-25T01:16:58;2.10;99.90
14985;DHT22;7588;62.368;25.902;2023-04-25T01:19:24;2.10;99.90
14985;DHT22;7588;62.368;25.902;2023-04-25T01:21:50;2.10;99.90
14985;DHT22;7588;62.368;25.902;2023-04-25T01:24:16;2.10;99.90
14985;DHT22;7588;62.368;25.902;2023-04-25T01:26:42;2.10;99.90
14985;DHT22;7588;62.368;25.902;2023-04-25T01:29:17;2.10;99.90
14985;DHT22;7588;62.368;25.902;2023-04-25T01:31:44;2.10;99.90
14985;DHT22;7588;62.368;25.902;2023-04-25T01:34:11;2.10;99.90
14985;DHT22;7588;62.368;25.902;2023-04-25T01:36:37;2.10;99.90
14985;DHT22;7588;62.368;25.902;2023-04-25T01:39:03;2.00;99.90
14985;DHT22;7588;62.368;25.902;2023-04-25T01:41:29;2.10;99.90
14985;DHT22;7588;62.368;25.902;2023-04-25T01:43:55;2.10;99.90
14985;DHT22;7588;62.368;25.902;2023-04-25T01:46:21;2.10;99.90
14985;DHT22;7588;62.368;25.902;2023-04-25T01:48:47;2.10;99.90
14985;DHT22;7588;62.368;25.902;2023-04-25T01:51:13;2.10;99.90
14985;DHT22;7588;62.368;25.902;2023-04-25T01:53:39;2.10;99.90
14985;DHT22;7588;62.368;25.902;2023-04-25T01:56:05;2.20;99.90
14985;DHT22;7588;62.368;25.902;2023-04-25T01:58:31;2.20;99.90
14985;DHT22;7588;62.368;25.902;2023-04-25T02:00:57;2.20;99.90
14985;DHT22;7588;62.368;25.902;2023-04-25T02:03:23;2.10;99.90
14985;DHT22;7588;62.368;25.902;2023-04-25T02:05:48;2.10;99.90
14985;DHT22;7588;62.368;25.902;2023-04-25T02:08:15;2.10;99.90
14985;DHT22;7588;62.368;25.902;2023-04-25T02:10:41;2.10;99.90
14985;DHT22;7588;62.368;25.902;2023-04-25T02:13:07;2.10;99.90
14985;DHT22;7588;62.368;25.902;2023-04-25T02:15:33;2.10;99.90
14985;DHT22;7588;62.368;25.902;2023-04-25T02:17:58;2.10;99.90
14985;DHT22;7588;62.368;25.902;2023-04-25T02:20:25;2.10;99.90
14985;DHT22;7588;62.368;25.902;2023-04-25T02:22:52;2.10;99.90
14985;DHT22;7588;62.368;25.902;2023-04-25T02:25:18;2.10;99.90
14985;DHT22;7588;62.368;25.902;2023-04-25T02:27:46;2.10;99.90
14985;DHT22;7588;62.368;25.902;2023-04-25T02:30:12;2.20;99.90
14985;DHT22;7588;62.368;25.902;2023-04-25T02:32:39;2.20;99.90
14985;DHT22;7588;62.368;25.902;2023-04-25T02:35:05;2.20;99.90
14985;DHT22;7588;62.368;25.902;2023-04-25T02:37:32;2.20;99.90
14985;DHT22;7588;62.368;25.902;2023-04-25T02:39:58;2.20;99.90
14985;DHT22;7588;62.368;25.902;2023-04-25T02:42:24;2.20;99.90
14985;DHT22;7588;62.368;25.902;2023-04-25T02:44:50;2.20;99.90
14985;DHT22;7588;62.368;25.902;2023-04-25T02:47:15;2.20;99.90
14985;DHT22;7588;62.368;25.902;2023-04-25T02:49:41;2.20;99.90
14985;DHT22;7588;62.368;25.902;2023-04-25T02:52:06;2.20;99.90
14985;DHT22;7588;62.368;25.902;2023-04-25T02:54:32;2.20;99.90
14985;DHT22;7588;62.368;25.902;2023-04-25T02:56:58;2.20;99.90
14985;DHT22;7588;62.368;25.902;2023-04-25T02:59:23;2.20;99.90
14985;DHT22;7588;62.368;25.902;2023-04-25T03:01:49;2.30;99.90
14985;DHT22;7588;62.368;25.902;2023-04-25T03:04:15;2.30;99.90
14985;DHT22;7588;62.368;25.902;2023-04-25T03:06:40;2.30;99.90
14985;DHT22;7588;62.368;25.902;2023-04-25T03:09:06;2.30;99.90
14985;DHT22;7588;62.368;25.902;2023-04-25T03:11:32;2.30;99.90
14985;DHT22;7588;62.368;25.902;2023-04-25T03:13:58;2.30;99.90
14985;DHT22;7588;62.368;25.902;2023-04-25T03:16:24;2.30;99.90
14985;DHT22;7588;62.368;25.902;2023-04-25T03:18:49;2.30;99.90
14985;DHT22;7588;62.368;25.902;2023-04-25T03:21:16;2.30;99.90
14985;DHT22;7588;62.368;25.902;2023-04-25T03:23:42;2.30;99.90
14985;DHT22;7588;62.368;25.902;2023-04-25T03:26:08;2.30;99.90
14985;DHT22;7588;62.368;25.902;2023-04-25T03:28:33;2.30;99.90
14985;DHT22;7588;62.368;25.902;2023-04-25T03:30:59;2.40;99.90
14985;DHT22;7588;62.368;25.902;2023-04-25T03:33:25;2.40;99.90
14985;DHT22;7588;62.368;25.902;2023-04-25T03:35:51;2.30;99.90
14985;DHT22;7588;62.368;25.902;2023-04-25T03:38:17;2.30;99.90
14985;DHT22;7588;62.368;25.902;2023-04-25T03:40:43;2.30;99.90
14985;DHT22;7588;62.368;25.902;2023-04-25T03:43:08;2.30;99.90
14985;DHT22;7588;62.368;25.902;2023-04-25T03:45:34;2.30;99.90
14985;DHT22;7588;62.368;25.902;2023-04-25T03:48:00;2.40;99.90
14985;DHT22;7588;62.368;25.902;2023-04-25T03:50:25;2.40;99.90
14985;DHT22;7588;62.368;25.902;2023-04-25T03:52:51;2.40;99.90
14985;DHT22;7588;62.368;25.902;2023-04-25T03:55:17;2.40;99.90
14985;DHT22;7588;62.368;25.902;2023-04-25T03:57:43;2.50;99.90
14985;DHT22;7588;62.368;25.902;2023-04-25T04:00:09;2.50;99.90
14985;DHT22;7588;62.368;25.902;2023-04-25T04:02:35;2.50;99.90
14985;DHT22;7588;62.368;25.902;2023-04-25T04:05:03;2.50;99.90
14985;DHT22;7588;62.368;25.902;2023-04-25T04:07:29;2.50;99.90
14985;DHT22;7588;62.368;25.902;2023-04-25T04:09:55;2.50;99.90
14985;DHT22;7588;62.368;25.902;2023-04-25T04:12:20;2.50;99.90
14985;DHT22;7588;62.368;25.902;2023-04-25T04:14:46;2.50;99.90
14985;DHT22;7588;62.368;25.902;2023-04-25T04:17:12;2.60;99.90
14985;DHT22;7588;62.368;25.902;2023-04-25T04:19:37;2.60;99.90
14985;DHT22;7588;62.368;25.902;2023-04-25T04:22:03;2.60;99.90
14985;DHT22;7588;62.368;25.902;2023-04-25T04:24:28;2.60;99.90
14985;DHT22;7588;62.368;25.902;2023-04-25T04:26:54;2.70;99.90
14985;DHT22;7588;62.368;25.902;2023-04-25T04:29:20;2.70;99.90
14985;DHT22;7588;62.368;25.902;2023-04-25T04:31:50;2.80;99.90
14985;DHT22;7588;62.368;25.902;2023-04-25T04:34:16;2.80;99.90
14985;DHT22;7588;62.368;25.902;2023-04-25T04:36:43;2.90;99.90
14985;DHT22;7588;62.368;25.902;2023-04-25T04:39:10;3.00;99.90
14985;DHT22;7588;62.368;25.902;2023-04-25T04:41:36;3.10;99.90
14985;DHT22;7588;62.368;25.902;2023-04-25T04:44:02;3.10;99.90
14985;DHT22;7588;62.368;25.902;2023-04-25T04:46:28;3.10;99.90
14985;DHT22;7588;62.368;25.902;2023-04-25T04:48:54;3.10;99.90
14985;DHT22;7588;62.368;25.902;2023-04-25T04:51:21;3.20;99.90
14985;DHT22;7588;62.368;25.902;2023-04-25T04:53:47;3.20;99.90
14985;DHT22;7588;62.368;25.902;2023-04-25T04:56:13;3.20;99.90
14985;DHT22;7588;62.368;25.902;2023-04-25T04:58:38;3.30;99.90
14985;DHT22;7588;62.368;25.902;2023-04-25T05:01:04;3.30;99.90
14985;DHT22;7588;62.368;25.902;2023-04-25T05:03:30;3.30;99.90
14985;DHT22;7588;62.368;25.902;2023-04-25T05:05:56;3.40;99.90
14985;DHT22;7588;62.368;25.902;2023-04-25T05:08:21;3.50;99.90
14985;DHT22;7588;62.368;25.902;2023-04-25T05:10:47;3.50;99.90
14985;DHT22;7588;62.368;25.902;2023-04-25T05:13:13;3.70;99.90
14985;DHT22;7588;62.368;25.902;2023-04-25T05:15:38;3.90;99.90
14985;DHT22;7588;62.368;25.902;2023-04-25T05:18:07;3.90;99.90
14985;DHT22;7588;62.368;25.902;2023-04-25T05:20:33;3.90;99.90
14985;DHT22;7588;62.368;25.902;2023-04-25T05:22:58;4.00;99.90
14985;DHT22;7588;62.368;25.902;2023-04-25T05:25:24;4.00;99.90
14985;DHT22;7588;62.368;25.902;2023-04-25T05:27:50;4.00;99.90
14985;DHT22;7588;62.368;25.902;2023-04-25T05:30:17;4.10;99.90
14985;DHT22;7588;62.368;25.902;2023-04-25T05:32:43;4.20;99.90
14985;DHT22;7588;62.368;25.902;2023-04-25T05:35:09;4.10;99.90
14985;DHT22;7588;62.368;25.902;2023-04-25T05:37:34;4.10;99.90
14985;DHT22;7588;62.368;25.902;2023-04-25T05:40:00;4.10;99.90
14985;DHT22;7588;62.368;25.902;2023-04-25T05:42:26;4.00;99.90
14985;DHT22;7588;62.368;25.902;2023-04-25T05:44:51;4.00;99.90
14985;DHT22;7588;62.368;25.902;2023-04-25T05:47:17;4.00;99.90
14985;DHT22;7588;62.368;25.902;2023-04-25T05:49:43;4.00;99.90
14985;DHT22;7588;62.368;25.902;2023-04-25T05:52:08;4.00;99.90
14985;DHT22;7588;62.368;25.902;2023-04-25T05:54:34;4.00;99.90
14985;DHT22;7588;62.368;25.902;2023-04-25T05:57:00;3.90;99.90
14985;DHT22;7588;62.368;25.902;2023-04-25T05:59:25;4.00;99.90
14985;DHT22;7588;62.368;25.902;2023-04-25T06:01:51;4.00;99.90
14985;DHT22;7588;62.368;25.902;2023-04-25T06:04:17;4.00;99.90
14985;DHT22;7588;62.368;25.902;2023-04-25T06:06:42;4.00;99.90
14985;DHT22;7588;62.368;25.902;2023-04-25T06:09:08;4.10;99.90
14985;DHT22;7588;62.368;25.902;2023-04-25T06:11:34;4.10;99.90
14985;DHT22;7588;62.368;25.902;2023-04-25T06:13:59;4.20;99.90
14985;DHT22;7588;62.368;25.902;2023-04-25T06:16:25;4.20;99.90
14985;DHT22;7588;62.368;25.902;2023-04-25T06:18:51;4.20;99.90
14985;DHT22;7588;62.368;25.902;2023-04-25T06:21:17;4.20;99.90
14985;DHT22;7588;62.368;25.902;2023-04-25T06:23:42;4.20;99.90
14985;DHT22;7588;62.368;25.902;2023-04-25T06:26:08;4.10;99.90
14985;DHT22;7588;62.368;25.902;2023-04-25T06:28:34;4.10;99.90
14985;DHT22;7588;62.368;25.902;2023-04-25T06:31:00;4.10;99.90
14985;DHT22;7588;62.368;25.902;2023-04-25T06:33:25;4.10;99.90
14985;DHT22;7588;62.368;25.902;2023-04-25T06:35:52;4.10;99.90
14985;DHT22;7588;62.368;25.902;2023-04-25T06:38:18;4.20;99.90
14985;DHT22;7588;62.368;25.902;2023-04-25T06:40:43;4.20;99.90
14985;DHT22;7588;62.368;25.902;2023-04-25T06:43:09;4.20;99.90
14985;DHT22;7588;62.368;25.902;2023-04-25T06:45:35;4.20;99.90
14985;DHT22;7588;62.368;25.902;2023-04-25T06:48:00;4.20;99.90
14985;DHT22;7588;62.368;25.902;2023-04-25T06:50:26;4.30;99.90
14985;DHT22;7588;62.368;25.902;2023-04-25T06:52:52;4.30;99.90
14985;DHT22;7588;62.368;25.902;2023-04-25T06:55:18;4.30;99.90
14985;DHT22;7588;62.368;25.902;2023-04-25T06:57:43;4.30;99.90
14985;DHT22;7588;62.368;25.902;2023-04-25T07:00:09;4.30;99.90
14985;DHT22;7588;62.368;25.902;2023-04-25T07:02:36;4.20;99.90
14985;DHT22;7588;62.368;25.902;2023-04-25T07:05:02;4.20;99.90
14985;DHT22;7588;62.368;25.902;2023-04-25T07:07:30;4.30;99.90
14985;DHT22;7588;62.368;25.902;2023-04-25T07:09:56;4.30;99.90
14985;DHT22;7588;62.368;25.902;2023-04-25T07:12:21;4.30;99.90
14985;DHT22;7588;62.368;25.902;2023-04-25T07:14:47;4.40;99.90
14985;DHT22;7588;62.368;25.902;2023-04-25T07:17:13;4.40;99.90
14985;DHT22;7588;62.368;25.902;2023-04-25T07:19:38;4.50;99.90
14985;DHT22;7588;62.368;25.902;2023-04-25T07:22:06;4.50;99.90
14985;DHT22;7588;62.368;25.902;2023-04-25T07:24:32;4.50;99.90
14985;DHT22;7588;62.368;25.902;2023-04-25T07:26:58;4.60;99.90
14985;DHT22;7588;62.368;25.902;2023-04-25T07:29:23;4.60;99.90
14985;DHT22;7588;62.368;25.902;2023-04-25T07:31:49;4.70;99.90
14985;DHT22;7588;62.368;25.902;2023-04-25T07:34:15;4.70;99.90
14985;DHT22;7588;62.368;25.902;2023-04-25T07:36:41;4.70;99.90
14985;DHT22;7588;62.368;25.902;2023-04-25T07:39:07;4.80;99.90
14985;DHT22;7588;62.368;25.902;2023-04-25T07:41:34;4.80;99.90
14985;DHT22;7588;62.368;25.902;2023-04-25T07:44:00;4.80;99.90
14985;DHT22;7588;62.368;25.902;2023-04-25T07:46:26;4.80;99.90
14985;DHT22;7588;62.368;25.902;2023-04-25T07:48:51;4.80;99.90
14985;DHT22;7588;62.368;25.902;2023-04-25T07:51:17;4.80;99.90
14985;DHT22;7588;62.368;25.902;2023-04-25T07:53:45;4.70;99.90
14985;DHT22;7588;62.368;25.902;2023-04-25T07:56:11;4.70;99.90
14985;DHT22;7588;62.368;25.902;2023-04-25T07:58:37;4.70;99.90
14985;DHT22;7588;62.368;25.902;2023-04-25T08:01:03;4.70;99.90
14985;DHT22;7588;62.368;25.902;2023-04-25T08:03:28;4.60;99.90
14985;DHT22;7588;62.368;25.902;2023-04-25T08:05:54;4.70;99.90
14985;DHT22;7588;62.368;25.902;2023-04-25T08:08:20;4.70;99.90
14985;DHT22;7588;62.368;25.902;2023-04-25T08:10:45;4.70;99.90
14985;DHT22;7588;62.368;25.902;2023-04-25T08:13:13;4.60;99.90
14985;DHT22;7588;62.368;25.902;2023-04-25T08:15:39;4.60;99.90
14985;DHT22;7588;62.368;25.902;2023-04-25T08:18:05;4.60;99.90
14985;DHT22;7588;62.368;25.902;2023-04-25T08:20:30;4.60;99.90
14985;DHT22;7588;62.368;25.902;2023-04-25T08:22:56;4.50;99.90
14985;DHT22;7588;62.368;25.902;2023-04-25T08:25:22;4.50;99.90
14985;DHT22;7588;62.368;25.902;2023-04-25T08:27:47;4.50;99.90
14985;DHT22;7588;62.368;25.902;2023-04-25T08:30:13;4.50;99.90
14985;DHT22;7588;62.368;25.902;2023-04-25T08:32:39;4.50;99.90
14985;DHT22;7588;62.368;25.902;2023-04-25T08:35:05;4.50;99.90
14985;DHT22;7588;62.368;25.902;2023-04-25T08:37:32;4.60;99.90
14985;DHT22;7588;62.368;25.902;2023-04-25T08:39:58;4.50;99.90
14985;DHT22;7588;62.368;25.902;2023-04-25T08:42:24;4.50;99.90
14985;DHT22;7588;62.368;25.902;2023-04-25T08:44:53;4.60;99.90
14985;DHT22;7588;62.368;25.902;2023-04-25T08:47:22;4.50;99.90
14985;DHT22;7588;62.368;25.902;2023-04-25T08:49:53;4.50;99.90
14985;DHT22;7588;62.368;25.902;2023-04-25T08:52:22;4.50;99.90
14985;DHT22;7588;62.368;25.902;2023-04-25T08:54:49;4.50;99.90
14985;DHT22;7588;62.368;25.902;2023-04-25T08:57:17;4.50;99.90
14985;DHT22;7588;62.368;25.902;2023-04-25T08:59:44;4.50;99.90
14985;DHT22;7588;62.368;25.902;2023-04-25T09:02:12;4.40;99.90
14985;DHT22;7588;62.368;25.902;2023-04-25T09:04:43;4.50;99.90
14985;DHT22;7588;62.368;25.902;2023-04-25T09:07:09;4.50;99.90
14985;DHT22;7588;62.368;25.902;2023-04-25T09:09:35;4.50;99.90
14985;DHT22;7588;62.368;25.902;2023-04-25T09:12:01;4.50;99.90
14985;DHT22;7588;62.368;25.902;2023-04-25T09:14:27;4.50;99.90
14985;DHT22;7588;62.368;25.902;2023-04-25T09:21:58;4.40;99.90
14985;DHT22;7588;62.368;25.902;2023-04-25T09:24:39;4.40;99.90
14985;DHT22;7588;62.368;25.902;2023-04-25T09:27:08;4.40;99.90
14985;DHT22;7588;62.368;25.902;2023-04-25T09:29:36;4.50;99.90
14985;DHT22;7588;62.368;25.902;2023-04-25T09:34:43;4.50;99.90
14985;DHT22;7588;62.368;25.902;2023-04-25T09:37:10;4.50;99.90
14985;DHT22;7588;62.368;25.902;2023-04-25T09:39:37;4.50;99.90
14985;DHT22;7588;62.368;25.902;2023-04-25T09:42:04;4.40;99.90
14985;DHT22;7588;62.368;25.902;2023-04-25T09:44:30;4.40;99.90
14985;DHT22;7588;62.368;25.902;2023-04-25T09:46:56;4.40;99.90
14985;DHT22;7588;62.368;25.902;2023-04-25T09:49:22;4.40;99.90
14985;DHT22;7588;62.368;25.902;2023-04-25T09:51:58;4.40;99.90
14985;DHT22;7588;62.368;25.902;2023-04-25T09:54:25;4.50;99.90
14985;DHT22;7588;62.368;25.902;2023-04-25T09:56:52;4.50;99.90
14985;DHT22;7588;62.368;25.902;2023-04-25T09:59:21;4.50;99.90
14985;DHT22;7588;62.368;25.902;2023-04-25T10:01:50;4.50;99.90
14985;DHT22;7588;62.368;25.902;2023-04-25T10:04:25;4.60;99.90
14985;DHT22;7588;62.368;25.902;2023-04-25T10:06:53;4.70;99.90
14985;DHT22;7588;62.368;25.902;2023-04-25T10:09:20;4.80;99.90
14985;DHT22;7588;62.368;25.902;2023-04-25T10:11:47;4.90;99.90
14985;DHT22;7588;62.368;25.902;2023-04-25T10:14:16;4.90;99.90
14985;DHT22;7588;62.368;25.902;2023-04-25T10:16:42;5.10;99.90
14985;DHT22;7588;62.368;25.902;2023-04-25T10:19:09;5.10;99.90
14985;DHT22;7588;62.368;25.902;2023-04-25T10:21:44;5.30;99.90
14985;DHT22;7588;62.368;25.902;2023-04-25T10:24:11;5.40;99.90
14985;DHT22;7588;62.368;25.902;2023-04-25T10:26:38;5.40;99.90
14985;DHT22;7588;62.368;25.902;2023-04-25T10:29:04;5.40;99.90
14985;DHT22;7588;62.368;25.902;2023-04-25T10:31:30;5.50;99.90
14985;DHT22;7588;62.368;25.902;2023-04-25T10:33:56;5.50;99.90
14985;DHT22;7588;62.368;25.902;2023-04-25T10:36:23;5.60;99.90
14985;DHT22;7588;62.368;25.902;2023-04-25T10:38:50;5.60;99.90
14985;DHT22;7588;62.368;25.902;2023-04-25T10:41:18;5.70;99.90
14985;DHT22;7588;62.368;25.902;2023-04-25T10:43:45;5.70;99.90
14985;DHT22;7588;62.368;25.902;2023-04-25T10:46:25;5.70;99.90
14985;DHT22;7588;62.368;25.902;2023-04-25T10:48:52;5.80;99.90
14985;DHT22;7588;62.368;25.902;2023-04-25T10:51:32;5.80;99.90
14985;DHT22;7588;62.368;25.902;2023-04-25T10:59:15;6.20;99.90
14985;DHT22;7588;62.368;25.902;2023-04-25T11:01:43;6.20;99.90
14985;DHT22;7588;62.368;25.902;2023-04-25T11:04:31;6.30;99.90
14985;DHT22;7588;62.368;25.902;2023-04-25T11:09:35;6.60;99.90
14985;DHT22;7588;62.368;25.902;2023-04-25T11:12:01;6.70;99.90
14985;DHT22;7588;62.368;25.902;2023-04-25T11:14:27;6.80;99.90
14985;DHT22;7588;62.368;25.902;2023-04-25T11:16:53;6.80;99.90
14985;DHT22;7588;62.368;25.902;2023-04-25T11:19:21;6.90;99.90
14985;DHT22;7588;62.368;25.902;2023-04-25T11:21:47;7.00;99.90
14985;DHT22;7588;62.368;25.902;2023-04-25T11:24:12;7.00;99.90
14985;DHT22;7588;62.368;25.902;2023-04-25T11:26:41;7.10;99.90
14985;DHT22;7588;62.368;25.902;2023-04-25T11:29:06;7.10;99.90
14985;DHT22;7588;62.368;25.902;2023-04-25T11:31:32;7.00;99.90
14985;DHT22;7588;62.368;25.902;2023-04-25T11:33:58;7.00;99.90
14985;DHT22;7588;62.368;25.902;2023-04-25T11:36:24;7.00;99.90
14985;DHT22;7588;62.368;25.902;2023-04-25T11:38:51;7.00;99.90
14985;DHT22;7588;62.368;25.902;2023-04-25T11:41:18;7.10;99.90
14985;DHT22;7588;62.368;25.902;2023-04-25T11:43:44;7.20;99.90
14985;DHT22;7588;62.368;25.902;2023-04-25T11:46:10;7.30;99.90
14985;DHT22;7588;62.368;25.902;2023-04-25T11:48:40;7.50;99.90
14985;DHT22;7588;62.368;25.902;2023-04-25T11:51:06;7.60;99.90
14985;DHT22;7588;62.368;25.902;2023-04-25T11:53:32;7.50;99.90
14985;DHT22;7588;62.368;25.902;2023-04-25T11:55:57;7.60;99.90
14985;DHT22;7588;62.368;25.902;2023-04-25T11:58:23;7.70;99.90
14985;DHT22;7588;62.368;25.902;2023-04-25T12:00:49;7.70;99.90
14985;DHT22;7588;62.368;25.902;2023-04-25T12:03:14;7.70;99.90
14985;DHT22;7588;62.368;25.902;2023-04-25T12:05:40;7.80;99.90
14985;DHT22;7588;62.368;25.902;2023-04-25T12:08:10;7.80;99.90
14985;DHT22;7588;62.368;25.902;2023-04-25T12:10:41;7.70;99.90
14985;DHT22;7588;62.368;25.902;2023-04-25T12:13:26;7.60;99.90
14985;DHT22;7588;62.368;25.902;2023-04-25T12:15:56;7.60;99.90
14985;DHT22;7588;62.368;25.902;2023-04-25T12:18:25;7.70;99.90
14985;DHT22;7588;62.368;25.902;2023-04-25T12:20:53;7.80;99.90
14985;DHT22;7588;62.368;25.902;2023-04-25T12:23:25;7.80;99.90
14985;DHT22;7588;62.368;25.902;2023-04-25T12:25:52;7.90;99.90
14985;DHT22;7588;62.368;25.902;2023-04-25T12:31:12;7.90;99.90
14985;DHT22;7588;62.368;25.902;2023-04-25T12:33:40;7.90;99.90
14985;DHT22;7588;62.368;25.902;2023-04-25T12:36:06;7.90;99.90
14985;DHT22;7588;62.368;25.902;2023-04-25T12:38:41;8.00;99.90
14985;DHT22;7588;62.368;25.902;2023-04-25T12:41:07;8.10;99.90
14985;DHT22;7588;62.368;25.902;2023-04-25T12:43:33;8.10;99.90
14985;DHT22;7588;62.368;25.902;2023-04-25T12:46:00;8.10;99.90
14985;DHT22;7588;62.368;25.902;2023-04-25T12:48:25;8.30;99.90
14985;DHT22;7588;62.368;25.902;2023-04-25T12:50:52;8.30;99.90
14985;DHT22;7588;62.368;25.902;2023-04-25T12:53:22;8.40;99.90
14985;DHT22;7588;62.368;25.902;2023-04-25T12:55:48;8.40;99.90
14985;DHT22;7588;62.368;25.902;2023-04-25T12:58:15;8.50;99.90
14985;DHT22;7588;62.368;25.902;2023-04-25T13:00:41;8.50;99.90
14985;DHT22;7588;62.368;25.902;2023-04-25T13:03:07;8.50;99.90
14985;DHT22;7588;62.368;25.902;2023-04-25T13:05:33;8.60;99.90
14985;DHT22;7588;62.368;25.902;2023-04-25T13:07:59;8.80;99.90
14985;DHT22;7588;62.368;25.902;2023-04-25T13:10:25;9.00;99.90
14985;DHT22;7588;62.368;25.902;2023-04-25T13:12:51;9.10;99.90
14985;DHT22;7588;62.368;25.902;2023-04-25T13:15:16;9.10;99.90
14985;DHT22;7588;62.368;25.902;2023-04-25T13:17:42;9.10;99.90
14985;DHT22;7588;62.368;25.902;2023-04-25T13:20:09;9.10;99.90
14985;DHT22;7588;62.368;25.902;2023-04-25T13:22:36;9.00;99.90
14985;DHT22;7588;62.368;25.902;2023-04-25T13:25:05;9.00;99.90
14985;DHT22;7588;62.368;25.902;2023-04-25T13:27:32;8.90;99.90
14985;DHT22;7588;62.368;25.902;2023-04-25T13:30:00;9.00;99.90
14985;DHT22;7588;62.368;25.902;2023-04-25T13:32:26;9.10;99.90
14985;DHT22;7588;62.368;25.902;2023-04-25T13:34:53;9.30;99.90
14985;DHT22;7588;62.368;25.902;2023-04-25T13:37:18;9.50;99.90
14985;DHT22;7588;62.368;25.902;2023-04-25T13:39:44;9.60;99.90
14985;DHT22;7588;62.368;25.902;2023-04-25T13:42:10;9.90;99.90
14985;DHT22;7588;62.368;25.902;2023-04-25T13:44:36;9.90;99.90
14985;DHT22;7588;62.368;25.902;2023-04-25T13:47:02;10.00;99.90
14985;DHT22;7588;62.368;25.902;2023-04-25T13:49:28;10.00;99.90
14985;DHT22;7588;62.368;25.902;2023-04-25T13:51:53;10.10;99.90
14985;DHT22;7588;62.368;25.902;2023-04-25T13:54:19;10.00;99.90
14985;DHT22;7588;62.368;25.902;2023-04-25T13:56:45;10.00;99.90
14985;DHT22;7588;62.368;25.902;2023-04-25T13:59:11;10.10;99.90
14985;DHT22;7588;62.368;25.902;2023-04-25T14:01:36;10.00;99.90
14985;DHT22;7588;62.368;25.902;2023-04-25T14:04:02;10.10;99.90
14985;DHT22;7588;62.368;25.902;2023-04-25T14:06:32;10.10;99.90
14985;DHT22;7588;62.368;25.902;2023-04-25T14:08:58;10.10;99.90
14985;DHT22;7588;62.368;25.902;2023-04-25T14:11:26;10.20;99.90
14985;DHT22;7588;62.368;25.902;2023-04-25T14:13:52;10.20;99.90
14985;DHT22;7588;62.368;25.902;2023-04-25T14:16:17;10.30;99.90
14985;DHT22;7588;62.368;25.902;2023-04-25T14:18:43;10.40;99.90
14985;DHT22;7588;62.368;25.902;2023-04-25T14:21:09;10.50;99.90
14985;DHT22;7588;62.368;25.902;2023-04-25T14:23:35;10.80;99.90
14985;DHT22;7588;62.368;25.902;2023-04-25T14:26:01;10.80;99.90
14985;DHT22;7588;62.368;25.902;2023-04-25T14:28:27;10.90;99.90
14985;DHT22;7588;62.368;25.902;2023-04-25T14:30:53;11.10;99.90
14985;DHT22;7588;62.368;25.902;2023-04-25T14:33:18;11.10;99.90
14985;DHT22;7588;62.368;25.902;2023-04-25T14:35:44;11.20;99.90
14985;DHT22;7588;62.368;25.902;2023-04-25T14:38:10;11.20;99.90
14985;DHT22;7588;62.368;25.902;2023-04-25T14:40:35;11.20;99.90
14985;DHT22;7588;62.368;25.902;2023-04-25T14:43:02;11.30;99.90
14985;DHT22;7588;62.368;25.902;2023-04-25T14:45:28;11.40;99.90
14985;DHT22;7588;62.368;25.902;2023-04-25T14:47:54;11.60;99.90
14985;DHT22;7588;62.368;25.902;2023-04-25T14:50:20;11.60;99.90
14985;DHT22;7588;62.368;25.902;2023-04-25T14:52:46;11.60;99.90
14985;DHT22;7588;62.368;25.902;2023-04-25T14:55:11;11.50;99.90
14985;DHT22;7588;62.368;25.902;2023-04-25T14:57:37;11.50;99.90
14985;DHT22;7588;62.368;25.902;2023-04-25T15:00:05;11.40;99.90
14985;DHT22;7588;62.368;25.902;2023-04-25T15:02:34;11.30;99.90
14985;DHT22;7588;62.368;25.902;2023-04-25T15:05:00;11.20;99.90
14985;DHT22;7588;62.368;25.902;2023-04-25T15:07:26;11.20;99.90
14985;DHT22;7588;62.368;25.902;2023-04-25T15:09:51;11.10;99.90
14985;DHT22;7588;62.368;25.902;2023-04-25T15:12:18;11.10;99.90
14985;DHT22;7588;62.368;25.902;2023-04-25T15:14:44;11.10;99.90
14985;DHT22;7588;62.368;25.902;2023-04-25T15:17:10;11.10;99.90
14985;DHT22;7588;62.368;25.902;2023-04-25T15:19:38;11.20;99.90
14985;DHT22;7588;62.368;25.902;2023-04-25T15:22:05;11.30;99.90
14985;DHT22;7588;62.368;25.902;2023-04-25T15:24:32;11.30;99.90
14985;DHT22;7588;62.368;25.902;2023-04-25T15:26:58;11.40;99.90
14985;DHT22;7588;62.368;25.902;2023-04-25T15:29:24;11.40;99.90
14985;DHT22;7588;62.368;25.902;2023-04-25T15:31:51;11.40;99.90
14985;DHT22;7588;62.368;25.902;2023-04-25T15:34:17;11.60;99.90
14985;DHT22;7588;62.368;25.902;2023-04-25T15:36:43;11.90;99.90
14985;DHT22;7588;62.368;25.902;2023-04-25T15:39:08;12.30;99.90
14985;DHT22;7588;62.368;25.902;2023-04-25T15:41:35;12.40;99.90
14985;DHT22;7588;62.368;25.902;2023-04-25T15:44:01;12.50;99.90
14985;DHT22;7588;62.368;25.902;2023-04-25T15:46:28;12.30;99.90
14985;DHT22;7588;62.368;25.902;2023-04-25T15:48:55;12.20;99.90
14985;DHT22;7588;62.368;25.902;2023-04-25T15:51:21;12.10;99.90
14985;DHT22;7588;62.368;25.902;2023-04-25T15:53:46;12.10;99.90
14985;DHT22;7588;62.368;25.902;2023-04-25T15:56:12;12.20;99.90
14985;DHT22;7588;62.368;25.902;2023-04-25T15:58:38;12.10;99.90